sensor_id;sensor_type;location;lat;lon;timestamp;P1;durP1;ratioP1;P2;durP2;ratioP2
28481;SDS011;15703;49.588;6.260;2023-03-07T00:01:32;28.80;;;20.63;;
28481;SDS011;15703;49.588;6.260;2023-03-07T00:03:55;33.17;;;21.23;;
28481;SDS011;15703;49.588;6.260;2023-03-07T00:06:17;29.13;;;20.37;;
28481;SDS011;15703;49.588;6.260;2023-03-07T00:08:40;28.23;;;20.33;;
28481;SDS011;15703;49.588;6.260;2023-03-07T00:11:02;27.60;;;19.37;;
28481;SDS011;15703;49.588;6.260;2023-03-07T00:13:27;31.27;;;20.10;;
28481;SDS011;15703;49.588;6.260;2023-03-07T00:15:50;31.10;;;20.90;;
28481;SDS011;15703;49.588;6.260;2023-03-07T00:18:12;31.60;;;20.13;;
28481;SDS011;15703;49.588;6.260;2023-03-07T00:20:34;30.30;;;20.77;;
28481;SDS011;15703;49.588;6.260;2023-03-07T00:22:57;30.93;;;19.57;;
28481;SDS011;15703;49.588;6.260;2023-03-07T00:25:19;29.53;;;19.70;;
28481;SDS011;15703;49.588;6.260;2023-03-07T00:27:41;29.47;;;21.23;;
28481;SDS011;15703;49.588;6.260;2023-03-07T00:30:04;27.43;;;19.27;;
28481;SDS011;15703;49.588;6.260;2023-03-07T00:32:26;28.50;;;19.80;;
28481;SDS011;15703;49.588;6.260;2023-03-07T00:34:49;28.17;;;19.40;;
28481;SDS011;15703;49.588;6.260;2023-03-07T00:37:11;29.13;;;20.10;;
28481;SDS011;15703;49.588;6.260;2023-03-07T00:39:35;34.63;;;20.37;;
28481;SDS011;15703;49.588;6.260;2023-03-07T00:41:58;31.10;;;20.70;;
28481;SDS011;15703;49.588;6.260;2023-03-07T00:44:20;32.67;;;21.30;;
28481;SDS011;15703;49.588;6.260;2023-03-07T00:46:42;33.17;;;21.80;;
28481;SDS011;15703;49.588;6.260;2023-03-07T00:49:05;32.83;;;20.83;;
28481;SDS011;15703;49.588;6.260;2023-03-07T00:51:27;35.93;;;22.27;;
28481;SDS011;15703;49.588;6.260;2023-03-07T00:53:50;33.40;;;22.37;;
28481;SDS011;15703;49.588;6.260;2023-03-07T00:56:21;36.90;;;23.17;;
28481;SDS011;15703;49.588;6.260;2023-03-07T00:58:43;30.60;;;21.53;;
28481;SDS011;15703;49.588;6.260;2023-03-07T01:01:06;30.87;;;21.40;;
28481;SDS011;15703;49.588;6.260;2023-03-07T01:03:30;33.57;;;21.83;;
28481;SDS011;15703;49.588;6.260;2023-03-07T01:05:53;30.77;;;21.27;;
28481;SDS011;15703;49.588;6.260;2023-03-07T01:08:16;31.50;;;20.13;;
28481;SDS011;15703;49.588;6.260;2023-03-07T01:10:39;30.77;;;20.93;;
28481;SDS011;15703;49.588;6.260;2023-03-07T01:13:01;30.63;;;21.37;;
28481;SDS011;15703;49.588;6.260;2023-03-07T01:15:24;29.73;;;20.40;;
28481;SDS011;15703;49.588;6.260;2023-03-07T01:17:47;29.47;;;20.43;;
28481;SDS011;15703;49.588;6.260;2023-03-07T01:20:10;30.47;;;19.30;;
28481;SDS011;15703;49.588;6.260;2023-03-07T01:22:33;29.13;;;19.30;;
28481;SDS011;15703;49.588;6.260;2023-03-07T01:24:55;25.93;;;18.00;;
28481;SDS011;15703;49.588;6.260;2023-03-07T01:27:18;30.50;;;19.90;;
28481;SDS011;15703;49.588;6.260;2023-03-07T01:29:40;27.00;;;17.57;;
28481;SDS011;15703;49.588;6.260;2023-03-07T01:32:07;31.17;;;20.33;;
28481;SDS011;15703;49.588;6.260;2023-03-07T01:34:30;26.90;;;18.23;;
28481;SDS011;15703;49.588;6.260;2023-03-07T01:36:54;27.60;;;18.90;;
28481;SDS011;15703;49.588;6.260;2023-03-07T01:39:16;28.20;;;18.13;;
28481;SDS011;15703;49.588;6.260;2023-03-07T01:42:00;25.10;;;17.07;;
28481;SDS011;15703;49.588;6.260;2023-03-07T01:44:24;24.97;;;17.27;;
28481;SDS011;15703;49.588;6.260;2023-03-07T01:54:19;21.93;;;16.10;;
28481;SDS011;15703;49.588;6.260;2023-03-07T01:56:43;26.33;;;16.23;;
28481;SDS011;15703;49.588;6.260;2023-03-07T01:59:06;24.90;;;15.93;;
28481;SDS011;15703;49.588;6.260;2023-03-07T02:01:29;20.63;;;15.27;;
28481;SDS011;15703;49.588;6.260;2023-03-07T02:03:53;22.93;;;15.47;;
28481;SDS011;15703;49.588;6.260;2023-03-07T02:06:16;22.40;;;14.53;;
28481;SDS011;15703;49.588;6.260;2023-03-07T02:08:39;18.70;;;14.27;;
28481;SDS011;15703;49.588;6.260;2023-03-07T02:11:03;21.67;;;15.13;;
28481;SDS011;15703;49.588;6.260;2023-03-07T02:13:26;20.50;;;14.57;;
28481;SDS011;15703;49.588;6.260;2023-03-07T02:15:48;23.00;;;15.87;;
28481;SDS011;15703;49.588;6.260;2023-03-07T02:18:12;22.00;;;14.43;;
28481;SDS011;15703;49.588;6.260;2023-03-07T02:23:07;19.03;;;13.87;;
28481;SDS011;15703;49.588;6.260;2023-03-07T02:28:02;19.57;;;14.03;;
28481;SDS011;15703;49.588;6.260;2023-03-07T02:30:28;20.23;;;14.53;;
28481;SDS011;15703;49.588;6.260;2023-03-07T02:32:51;22.87;;;15.03;;
28481;SDS011;15703;49.588;6.260;2023-03-07T02:35:19;20.90;;;13.70;;
28481;SDS011;15703;49.588;6.260;2023-03-07T02:37:44;24.10;;;14.80;;
28481;SDS011;15703;49.588;6.260;2023-03-07T02:40:07;18.83;;;13.43;;
28481;SDS011;15703;49.588;6.260;2023-03-07T02:42:32;19.23;;;14.13;;
28481;SDS011;15703;49.588;6.260;2023-03-07T02:45:02;19.77;;;14.07;;
28481;SDS011;15703;49.588;6.260;2023-03-07T02:47:28;19.90;;;14.17;;
28481;SDS011;15703;49.588;6.260;2023-03-07T02:49:51;20.53;;;14.97;;
28481;SDS011;15703;49.588;6.260;2023-03-07T02:52:14;20.30;;;13.67;;
28481;SDS011;15703;49.588;6.260;2023-03-07T02:54:36;19.20;;;13.17;;
28481;SDS011;15703;49.588;6.260;2023-03-07T02:56:58;21.70;;;13.90;;
28481;SDS011;15703;49.588;6.260;2023-03-07T03:02:09;22.33;;;13.90;;
28481;SDS011;15703;49.588;6.260;2023-03-07T03:04:31;20.03;;;14.63;;
28481;SDS011;15703;49.588;6.260;2023-03-07T03:06:54;21.90;;;14.73;;
28481;SDS011;15703;49.588;6.260;2023-03-07T03:09:16;18.60;;;14.30;;
28481;SDS011;15703;49.588;6.260;2023-03-07T03:11:39;21.43;;;13.30;;
28481;SDS011;15703;49.588;6.260;2023-03-07T03:14:04;19.90;;;14.17;;
28481;SDS011;15703;49.588;6.260;2023-03-07T03:16:27;19.90;;;13.23;;
28481;SDS011;15703;49.588;6.260;2023-03-07T03:18:55;21.00;;;14.20;;
28481;SDS011;15703;49.588;6.260;2023-03-07T03:21:18;18.73;;;13.07;;
28481;SDS011;15703;49.588;6.260;2023-03-07T03:23:41;18.80;;;13.30;;
28481;SDS011;15703;49.588;6.260;2023-03-07T03:26:05;17.50;;;12.97;;
28481;SDS011;15703;49.588;6.260;2023-03-07T03:28:28;21.53;;;12.93;;
28481;SDS011;15703;49.588;6.260;2023-03-07T03:30:58;22.23;;;14.07;;
28481;SDS011;15703;49.588;6.260;2023-03-07T03:33:20;17.43;;;13.17;;
28481;SDS011;15703;49.588;6.260;2023-03-07T03:35:42;19.20;;;14.70;;
28481;SDS011;15703;49.588;6.260;2023-03-07T03:38:05;18.37;;;13.50;;
28481;SDS011;15703;49.588;6.260;2023-03-07T03:40:27;20.80;;;13.43;;
28481;SDS011;15703;49.588;6.260;2023-03-07T03:42:50;21.43;;;14.10;;
28481;SDS011;15703;49.588;6.260;2023-03-07T03:45:21;18.47;;;13.10;;
28481;SDS011;15703;49.588;6.260;2023-03-07T03:47:44;19.43;;;13.60;;
28481;SDS011;15703;49.588;6.260;2023-03-07T03:50:09;19.27;;;14.13;;
28481;SDS011;15703;49.588;6.260;2023-03-07T03:52:34;18.00;;;12.83;;
28481;SDS011;15703;49.588;6.260;2023-03-07T03:54:57;17.10;;;12.80;;
28481;SDS011;15703;49.588;6.260;2023-03-07T03:57:19;18.60;;;13.23;;
28481;SDS011;15703;49.588;6.260;2023-03-07T03:59:42;17.87;;;13.17;;
28481;SDS011;15703;49.588;6.260;2023-03-07T04:02:07;16.50;;;12.17;;
28481;SDS011;15703;49.588;6.260;2023-03-07T04:04:29;18.57;;;12.90;;
28481;SDS011;15703;49.588;6.260;2023-03-07T04:06:52;17.40;;;13.23;;
28481;SDS011;15703;49.588;6.260;2023-03-07T04:09:15;19.03;;;13.03;;
28481;SDS011;15703;49.588;6.260;2023-03-07T04:11:40;19.37;;;13.10;;
28481;SDS011;15703;49.588;6.260;2023-03-07T04:14:02;16.13;;;12.33;;
28481;SDS011;15703;49.588;6.260;2023-03-07T04:16:25;18.57;;;12.77;;
28481;SDS011;15703;49.588;6.260;2023-03-07T04:18:49;18.43;;;13.67;;
28481;SDS011;15703;49.588;6.260;2023-03-07T04:21:12;16.83;;;13.07;;
28481;SDS011;15703;49.588;6.260;2023-03-07T04:23:35;16.40;;;12.77;;
28481;SDS011;15703;49.588;6.260;2023-03-07T04:25:58;17.80;;;13.33;;
28481;SDS011;15703;49.588;6.260;2023-03-07T04:28:25;20.33;;;13.63;;
28481;SDS011;15703;49.588;6.260;2023-03-07T04:30:48;17.27;;;12.70;;
28481;SDS011;15703;49.588;6.260;2023-03-07T04:33:13;22.23;;;12.97;;
28481;SDS011;15703;49.588;6.260;2023-03-07T04:35:36;16.07;;;12.10;;
28481;SDS011;15703;49.588;6.260;2023-03-07T04:37:58;12.67;;;9.60;;
28481;SDS011;15703;49.588;6.260;2023-03-07T04:40:21;15.43;;;11.80;;
28481;SDS011;15703;49.588;6.260;2023-03-07T04:42:43;19.30;;;12.23;;
28481;SDS011;15703;49.588;6.260;2023-03-07T04:45:06;15.57;;;12.00;;
28481;SDS011;15703;49.588;6.260;2023-03-07T04:47:29;18.60;;;13.47;;
28481;SDS011;15703;49.588;6.260;2023-03-07T04:49:52;15.70;;;12.53;;
28481;SDS011;15703;49.588;6.260;2023-03-07T04:52:14;19.30;;;12.93;;
28481;SDS011;15703;49.588;6.260;2023-03-07T04:54:36;17.93;;;12.30;;
28481;SDS011;15703;49.588;6.260;2023-03-07T04:57:01;18.13;;;12.47;;
28481;SDS011;15703;49.588;6.260;2023-03-07T04:59:24;16.80;;;12.07;;
28481;SDS011;15703;49.588;6.260;2023-03-07T05:01:47;16.90;;;11.50;;
28481;SDS011;15703;49.588;6.260;2023-03-07T05:04:09;19.87;;;12.70;;
28481;SDS011;15703;49.588;6.260;2023-03-07T05:06:32;16.90;;;12.13;;
28481;SDS011;15703;49.588;6.260;2023-03-07T05:08:55;18.27;;;12.47;;
28481;SDS011;15703;49.588;6.260;2023-03-07T05:11:17;17.07;;;12.03;;
28481;SDS011;15703;49.588;6.260;2023-03-07T05:13:40;18.47;;;11.43;;
28481;SDS011;15703;49.588;6.260;2023-03-07T05:16:03;19.03;;;12.17;;
28481;SDS011;15703;49.588;6.260;2023-03-07T05:18:26;14.03;;;11.33;;
28481;SDS011;15703;49.588;6.260;2023-03-07T05:20:51;15.33;;;11.57;;
28481;SDS011;15703;49.588;6.260;2023-03-07T05:23:14;15.77;;;12.97;;
28481;SDS011;15703;49.588;6.260;2023-03-07T05:25:36;16.77;;;11.50;;
28481;SDS011;15703;49.588;6.260;2023-03-07T05:27:59;18.73;;;11.80;;
28481;SDS011;15703;49.588;6.260;2023-03-07T05:30:21;19.03;;;12.67;;
28481;SDS011;15703;49.588;6.260;2023-03-07T05:32:44;17.30;;;11.80;;
28481;SDS011;15703;49.588;6.260;2023-03-07T05:35:09;21.13;;;12.07;;
28481;SDS011;15703;49.588;6.260;2023-03-07T05:37:33;16.83;;;11.00;;
28481;SDS011;15703;49.588;6.260;2023-03-07T05:39:55;16.97;;;10.93;;
28481;SDS011;15703;49.588;6.260;2023-03-07T05:42:18;16.07;;;11.67;;
28481;SDS011;15703;49.588;6.260;2023-03-07T05:44:41;16.40;;;12.03;;
28481;SDS011;15703;49.588;6.260;2023-03-07T05:47:04;16.53;;;12.33;;
28481;SDS011;15703;49.588;6.260;2023-03-07T05:49:27;18.93;;;12.90;;
28481;SDS011;15703;49.588;6.260;2023-03-07T05:51:50;19.77;;;12.77;;
28481;SDS011;15703;49.588;6.260;2023-03-07T05:54:14;13.00;;;10.80;;
28481;SDS011;15703;49.588;6.260;2023-03-07T05:56:37;19.73;;;11.77;;
28481;SDS011;15703;49.588;6.260;2023-03-07T05:59:00;16.70;;;11.43;;
28481;SDS011;15703;49.588;6.260;2023-03-07T06:01:22;18.67;;;12.53;;
28481;SDS011;15703;49.588;6.260;2023-03-07T06:04:08;20.87;;;11.53;;
28481;SDS011;15703;49.588;6.260;2023-03-07T06:06:31;15.97;;;11.37;;
28481;SDS011;15703;49.588;6.260;2023-03-07T06:08:54;16.83;;;12.03;;
28481;SDS011;15703;49.588;6.260;2023-03-07T06:11:17;17.37;;;11.67;;
28481;SDS011;15703;49.588;6.260;2023-03-07T06:13:39;17.43;;;12.13;;
28481;SDS011;15703;49.588;6.260;2023-03-07T06:16:02;13.90;;;10.93;;
28481;SDS011;15703;49.588;6.260;2023-03-07T06:18:45;13.63;;;10.20;;
28481;SDS011;15703;49.588;6.260;2023-03-07T06:21:08;16.43;;;11.20;;
28481;SDS011;15703;49.588;6.260;2023-03-07T06:23:35;15.03;;;10.43;;
28481;SDS011;15703;49.588;6.260;2023-03-07T06:26:12;16.33;;;11.67;;
28481;SDS011;15703;49.588;6.260;2023-03-07T06:28:38;14.30;;;11.00;;
28481;SDS011;15703;49.588;6.260;2023-03-07T06:31:00;16.07;;;10.97;;
28481;SDS011;15703;49.588;6.260;2023-03-07T06:34:04;17.97;;;10.60;;
28481;SDS011;15703;49.588;6.260;2023-03-07T06:36:31;16.87;;;11.03;;
28481;SDS011;15703;49.588;6.260;2023-03-07T06:38:55;15.90;;;11.20;;
28481;SDS011;15703;49.588;6.260;2023-03-07T06:41:21;15.37;;;11.27;;
28481;SDS011;15703;49.588;6.260;2023-03-07T06:43:49;13.90;;;10.53;;
28481;SDS011;15703;49.588;6.260;2023-03-07T06:46:11;15.93;;;10.97;;
28481;SDS011;15703;49.588;6.260;2023-03-07T06:48:37;13.77;;;10.53;;
28481;SDS011;15703;49.588;6.260;2023-03-07T06:51:07;17.30;;;12.43;;
28481;SDS011;15703;49.588;6.260;2023-03-07T06:53:32;17.00;;;12.07;;
28481;SDS011;15703;49.588;6.260;2023-03-07T06:55:57;15.97;;;11.23;;
28481;SDS011;15703;49.588;6.260;2023-03-07T06:58:20;15.43;;;11.20;;
28481;SDS011;15703;49.588;6.260;2023-03-07T07:00:43;15.80;;;11.50;;
28481;SDS011;15703;49.588;6.260;2023-03-07T07:03:05;15.17;;;11.43;;
28481;SDS011;15703;49.588;6.260;2023-03-07T07:05:28;15.47;;;10.20;;
28481;SDS011;15703;49.588;6.260;2023-03-07T07:08:10;17.20;;;10.83;;
28481;SDS011;15703;49.588;6.260;2023-03-07T07:10:33;15.93;;;11.83;;
28481;SDS011;15703;49.588;6.260;2023-03-07T07:12:58;15.63;;;10.43;;
28481;SDS011;15703;49.588;6.260;2023-03-07T07:15:30;15.40;;;10.73;;
28481;SDS011;15703;49.588;6.260;2023-03-07T07:18:35;14.17;;;10.37;;
28481;SDS011;15703;49.588;6.260;2023-03-07T07:23:41;12.23;;;10.00;;
28481;SDS011;15703;49.588;6.260;2023-03-07T07:26:09;16.07;;;10.90;;
28481;SDS011;15703;49.588;6.260;2023-03-07T07:28:53;16.47;;;11.23;;
28481;SDS011;15703;49.588;6.260;2023-03-07T07:31:15;15.87;;;11.20;;
28481;SDS011;15703;49.588;6.260;2023-03-07T07:33:38;16.47;;;11.07;;
28481;SDS011;15703;49.588;6.260;2023-03-07T07:36:00;15.50;;;11.30;;
28481;SDS011;15703;49.588;6.260;2023-03-07T07:38:23;14.53;;;11.23;;
28481;SDS011;15703;49.588;6.260;2023-03-07T07:40:46;13.90;;;10.33;;
28481;SDS011;15703;49.588;6.260;2023-03-07T07:43:13;16.30;;;11.00;;
28481;SDS011;15703;49.588;6.260;2023-03-07T07:45:43;15.20;;;10.40;;
28481;SDS011;15703;49.588;6.260;2023-03-07T07:48:09;12.97;;;10.57;;
28481;SDS011;15703;49.588;6.260;2023-03-07T07:50:31;14.07;;;10.67;;
28481;SDS011;15703;49.588;6.260;2023-03-07T07:52:54;13.50;;;9.70;;
28481;SDS011;15703;49.588;6.260;2023-03-07T07:55:17;15.40;;;10.80;;
28481;SDS011;15703;49.588;6.260;2023-03-07T07:57:40;13.60;;;9.70;;
28481;SDS011;15703;49.588;6.260;2023-03-07T08:00:03;12.37;;;9.27;;
28481;SDS011;15703;49.588;6.260;2023-03-07T08:02:33;13.90;;;9.83;;
28481;SDS011;15703;49.588;6.260;2023-03-07T08:04:55;13.90;;;9.13;;
28481;SDS011;15703;49.588;6.260;2023-03-07T08:07:18;13.20;;;10.33;;
28481;SDS011;15703;49.588;6.260;2023-03-07T08:09:40;16.47;;;10.57;;
28481;SDS011;15703;49.588;6.260;2023-03-07T08:12:02;13.90;;;10.53;;
28481;SDS011;15703;49.588;6.260;2023-03-07T08:14:25;17.53;;;10.80;;
28481;SDS011;15703;49.588;6.260;2023-03-07T08:16:47;14.47;;;10.33;;
28481;SDS011;15703;49.588;6.260;2023-03-07T08:19:09;15.93;;;10.80;;
28481;SDS011;15703;49.588;6.260;2023-03-07T08:21:32;14.30;;;10.77;;
28481;SDS011;15703;49.588;6.260;2023-03-07T08:23:54;16.97;;;10.67;;
28481;SDS011;15703;49.588;6.260;2023-03-07T08:26:16;15.43;;;9.93;;
28481;SDS011;15703;49.588;6.260;2023-03-07T08:28:39;17.10;;;10.53;;
28481;SDS011;15703;49.588;6.260;2023-03-07T08:31:18;13.43;;;10.30;;
28481;SDS011;15703;49.588;6.260;2023-03-07T08:33:46;12.73;;;9.67;;
28481;SDS011;15703;49.588;6.260;2023-03-07T08:36:08;15.87;;;10.17;;
28481;SDS011;15703;49.588;6.260;2023-03-07T08:38:31;14.10;;;9.73;;
28481;SDS011;15703;49.588;6.260;2023-03-07T08:40:53;15.33;;;10.93;;
28481;SDS011;15703;49.588;6.260;2023-03-07T08:43:20;13.40;;;9.93;;
28481;SDS011;15703;49.588;6.260;2023-03-07T08:45:42;13.23;;;10.60;;
28481;SDS011;15703;49.588;6.260;2023-03-07T08:48:07;14.27;;;10.37;;
28481;SDS011;15703;49.588;6.260;2023-03-07T08:50:29;11.97;;;9.97;;
28481;SDS011;15703;49.588;6.260;2023-03-07T08:52:52;13.80;;;9.90;;
28481;SDS011;15703;49.588;6.260;2023-03-07T08:55:14;17.80;;;10.57;;
28481;SDS011;15703;49.588;6.260;2023-03-07T08:57:37;14.27;;;10.70;;
28481;SDS011;15703;49.588;6.260;2023-03-07T08:59:59;14.67;;;10.80;;
28481;SDS011;15703;49.588;6.260;2023-03-07T09:02:21;15.37;;;11.13;;
28481;SDS011;15703;49.588;6.260;2023-03-07T09:04:44;16.97;;;11.10;;
28481;SDS011;15703;49.588;6.260;2023-03-07T09:07:06;18.33;;;11.30;;
28481;SDS011;15703;49.588;6.260;2023-03-07T09:09:29;12.77;;;10.43;;
28481;SDS011;15703;49.588;6.260;2023-03-07T09:11:51;14.87;;;10.83;;
28481;SDS011;15703;49.588;6.260;2023-03-07T09:14:13;14.57;;;10.63;;
28481;SDS011;15703;49.588;6.260;2023-03-07T09:16:36;12.87;;;10.23;;
28481;SDS011;15703;49.588;6.260;2023-03-07T09:18:58;14.97;;;10.40;;
28481;SDS011;15703;49.588;6.260;2023-03-07T09:21:20;13.07;;;10.43;;
28481;SDS011;15703;49.588;6.260;2023-03-07T09:23:43;14.23;;;9.93;;
28481;SDS011;15703;49.588;6.260;2023-03-07T09:26:05;15.23;;;11.07;;
28481;SDS011;15703;49.588;6.260;2023-03-07T09:28:27;13.33;;;10.43;;
28481;SDS011;15703;49.588;6.260;2023-03-07T09:30:50;15.03;;;10.73;;
28481;SDS011;15703;49.588;6.260;2023-03-07T09:33:12;13.50;;;9.93;;
28481;SDS011;15703;49.588;6.260;2023-03-07T09:35:36;13.80;;;10.73;;
28481;SDS011;15703;49.588;6.260;2023-03-07T09:37:59;12.93;;;10.73;;
28481;SDS011;15703;49.588;6.260;2023-03-07T09:40:22;15.13;;;11.10;;
28481;SDS011;15703;49.588;6.260;2023-03-07T09:42:56;15.53;;;10.23;;
28481;SDS011;15703;49.588;6.260;2023-03-07T09:50:54;14.70;;;10.27;;
28481;SDS011;15703;49.588;6.260;2023-03-07T09:53:31;14.77;;;10.07;;
28481;SDS011;15703;49.588;6.260;2023-03-07T09:55:57;13.70;;;10.07;;
28481;SDS011;15703;49.588;6.260;2023-03-07T09:58:20;11.97;;;9.43;;
28481;SDS011;15703;49.588;6.260;2023-03-07T10:00:44;13.10;;;10.40;;
28481;SDS011;15703;49.588;6.260;2023-03-07T10:05:50;13.87;;;9.83;;
28481;SDS011;15703;49.588;6.260;2023-03-07T10:08:14;14.70;;;9.83;;
28481;SDS011;15703;49.588;6.260;2023-03-07T10:10:41;13.83;;;9.80;;
28481;SDS011;15703;49.588;6.260;2023-03-07T10:16:13;14.33;;;9.83;;
28481;SDS011;15703;49.588;6.260;2023-03-07T10:18:20;15.77;;;11.33;;
28481;SDS011;15703;49.588;6.260;2023-03-07T10:26:00;16.17;;;10.63;;
28481;SDS011;15703;49.588;6.260;2023-03-07T10:28:33;12.47;;;9.50;;
28481;SDS011;15703;49.588;6.260;2023-03-07T10:31:04;15.67;;;9.97;;
28481;SDS011;15703;49.588;6.260;2023-03-07T10:33:31;13.70;;;9.87;;
28481;SDS011;15703;49.588;6.260;2023-03-07T10:36:30;12.47;;;9.63;;
28481;SDS011;15703;49.588;6.260;2023-03-07T10:39:00;15.97;;;9.63;;
28481;SDS011;15703;49.588;6.260;2023-03-07T10:41:24;13.57;;;9.20;;
28481;SDS011;15703;49.588;6.260;2023-03-07T10:43:47;12.60;;;8.93;;
28481;SDS011;15703;49.588;6.260;2023-03-07T10:48:53;14.10;;;10.00;;
28481;SDS011;15703;49.588;6.260;2023-03-07T10:51:26;13.43;;;9.57;;
28481;SDS011;15703;49.588;6.260;2023-03-07T10:53:50;14.00;;;9.03;;
28481;SDS011;15703;49.588;6.260;2023-03-07T10:56:14;12.07;;;9.57;;
28481;SDS011;15703;49.588;6.260;2023-03-07T10:58:37;18.17;;;9.67;;
28481;SDS011;15703;49.588;6.260;2023-03-07T11:06:26;13.37;;;8.97;;
28481;SDS011;15703;49.588;6.260;2023-03-07T11:08:49;14.20;;;9.70;;
28481;SDS011;15703;49.588;6.260;2023-03-07T11:11:20;15.47;;;11.13;;
28481;SDS011;15703;49.588;6.260;2023-03-07T11:13:43;14.00;;;10.83;;
28481;SDS011;15703;49.588;6.260;2023-03-07T11:16:25;14.20;;;11.20;;
28481;SDS011;15703;49.588;6.260;2023-03-07T11:18:47;15.53;;;11.50;;
28481;SDS011;15703;49.588;6.260;2023-03-07T11:21:32;14.40;;;10.73;;
28481;SDS011;15703;49.588;6.260;2023-03-07T11:24:09;14.60;;;10.03;;
28481;SDS011;15703;49.588;6.260;2023-03-07T11:26:38;11.10;;;9.90;;
28481;SDS011;15703;49.588;6.260;2023-03-07T11:29:08;12.47;;;9.80;;
28481;SDS011;15703;49.588;6.260;2023-03-07T11:31:32;11.57;;;8.83;;
28481;SDS011;15703;49.588;6.260;2023-03-07T11:36:24;12.60;;;9.10;;
28481;SDS011;15703;49.588;6.260;2023-03-07T11:41:14;10.33;;;8.27;;
28481;SDS011;15703;49.588;6.260;2023-03-07T11:43:50;8.07;;;7.27;;
28481;SDS011;15703;49.588;6.260;2023-03-07T11:51:25;7.80;;;7.00;;
28481;SDS011;15703;49.588;6.260;2023-03-07T11:56:23;9.43;;;7.63;;
28481;SDS011;15703;49.588;6.260;2023-03-07T12:04:22;13.60;;;9.10;;
28481;SDS011;15703;49.588;6.260;2023-03-07T12:06:51;13.40;;;9.20;;
28481;SDS011;15703;49.588;6.260;2023-03-07T12:19:28;15.37;;;10.83;;
28481;SDS011;15703;49.588;6.260;2023-03-07T12:30:20;16.20;;;10.70;;
28481;SDS011;15703;49.588;6.260;2023-03-07T12:32:40;16.13;;;11.93;;
28481;SDS011;15703;49.588;6.260;2023-03-07T12:37:45;15.50;;;11.40;;
28481;SDS011;15703;49.588;6.260;2023-03-07T12:40:13;15.97;;;11.20;;
28481;SDS011;15703;49.588;6.260;2023-03-07T12:42:59;16.67;;;11.73;;
28481;SDS011;15703;49.588;6.260;2023-03-07T12:45:23;13.77;;;11.13;;
28481;SDS011;15703;49.588;6.260;2023-03-07T12:58:05;14.20;;;11.17;;
28481;SDS011;15703;49.588;6.260;2023-03-07T13:00:28;16.03;;;10.97;;
28481;SDS011;15703;49.588;6.260;2023-03-07T13:03:00;13.07;;;10.17;;
28481;SDS011;15703;49.588;6.260;2023-03-07T13:05:24;14.90;;;10.40;;
28481;SDS011;15703;49.588;6.260;2023-03-07T13:07:47;13.37;;;10.37;;
28481;SDS011;15703;49.588;6.260;2023-03-07T13:10:10;13.30;;;11.13;;
28481;SDS011;15703;49.588;6.260;2023-03-07T13:12:36;18.30;;;11.93;;
28481;SDS011;15703;49.588;6.260;2023-03-07T13:14:59;17.47;;;11.77;;
28481;SDS011;15703;49.588;6.260;2023-03-07T13:19:51;14.90;;;10.33;;
28481;SDS011;15703;49.588;6.260;2023-03-07T13:24:37;13.47;;;10.17;;
28481;SDS011;15703;49.588;6.260;2023-03-07T13:27:01;14.07;;;10.00;;
28481;SDS011;15703;49.588;6.260;2023-03-07T13:32:41;11.00;;;8.67;;
28481;SDS011;15703;49.588;6.260;2023-03-07T13:34:46;12.60;;;8.07;;
28481;SDS011;15703;49.588;6.260;2023-03-07T13:39:58;17.23;;;8.43;;
28481;SDS011;15703;49.588;6.260;2023-03-07T13:42:45;17.50;;;9.77;;
28481;SDS011;15703;49.588;6.260;2023-03-07T13:45:43;13.50;;;7.73;;
28481;SDS011;15703;49.588;6.260;2023-03-07T13:47:55;8.63;;;6.93;;
28481;SDS011;15703;49.588;6.260;2023-03-07T13:52:55;13.50;;;8.30;;
28481;SDS011;15703;49.588;6.260;2023-03-07T13:55:19;14.97;;;7.67;;
28481;SDS011;15703;49.588;6.260;2023-03-07T13:57:42;11.30;;;8.13;;
28481;SDS011;15703;49.588;6.260;2023-03-07T14:00:17;11.50;;;7.67;;
28481;SDS011;15703;49.588;6.260;2023-03-07T14:02:42;11.37;;;7.10;;
28481;SDS011;15703;49.588;6.260;2023-03-07T14:05:05;9.97;;;7.07;;
28481;SDS011;15703;49.588;6.260;2023-03-07T14:07:30;11.60;;;7.70;;
28481;SDS011;15703;49.588;6.260;2023-03-07T14:24:44;11.57;;;8.20;;
28481;SDS011;15703;49.588;6.260;2023-03-07T14:27:12;11.97;;;7.90;;
28481;SDS011;15703;49.588;6.260;2023-03-07T14:29:35;9.70;;;7.57;;
28481;SDS011;15703;49.588;6.260;2023-03-07T14:31:58;12.57;;;7.33;;
28481;SDS011;15703;49.588;6.260;2023-03-07T14:34:31;17.67;;;11.77;;
28481;SDS011;15703;49.588;6.260;2023-03-07T14:39:19;12.80;;;8.53;;
28481;SDS011;15703;49.588;6.260;2023-03-07T14:49:05;12.13;;;8.67;;
28481;SDS011;15703;49.588;6.260;2023-03-07T14:51:29;10.63;;;8.33;;
28481;SDS011;15703;49.588;6.260;2023-03-07T14:53:52;11.33;;;8.03;;
28481;SDS011;15703;49.588;6.260;2023-03-07T14:56:19;12.30;;;8.10;;
28481;SDS011;15703;49.588;6.260;2023-03-07T14:58:46;10.93;;;9.00;;
28481;SDS011;15703;49.588;6.260;2023-03-07T15:01:13;13.97;;;9.00;;
28481;SDS011;15703;49.588;6.260;2023-03-07T15:03:43;11.17;;;8.50;;
28481;SDS011;15703;49.588;6.260;2023-03-07T15:06:10;11.10;;;8.07;;
28481;SDS011;15703;49.588;6.260;2023-03-07T15:08:34;12.47;;;8.70;;
28481;SDS011;15703;49.588;6.260;2023-03-07T15:11:01;11.87;;;9.30;;
28481;SDS011;15703;49.588;6.260;2023-03-07T15:13:27;10.57;;;8.40;;
28481;SDS011;15703;49.588;6.260;2023-03-07T15:15:51;13.47;;;9.47;;
28481;SDS011;15703;49.588;6.260;2023-03-07T15:18:27;11.37;;;8.67;;
28481;SDS011;15703;49.588;6.260;2023-03-07T15:20:50;11.07;;;8.13;;
28481;SDS011;15703;49.588;6.260;2023-03-07T15:23:21;13.93;;;8.97;;
28481;SDS011;15703;49.588;6.260;2023-03-07T15:25:44;12.17;;;8.47;;
28481;SDS011;15703;49.588;6.260;2023-03-07T15:28:17;11.40;;;8.17;;
28481;SDS011;15703;49.588;6.260;2023-03-07T15:30:44;10.73;;;8.77;;
28481;SDS011;15703;49.588;6.260;2023-03-07T15:33:10;12.83;;;9.00;;
28481;SDS011;15703;49.588;6.260;2023-03-07T15:35:33;11.80;;;8.47;;
28481;SDS011;15703;49.588;6.260;2023-03-07T15:37:56;11.90;;;8.13;;
28481;SDS011;15703;49.588;6.260;2023-03-07T15:42:49;11.53;;;8.63;;
28481;SDS011;15703;49.588;6.260;2023-03-07T15:45:30;13.47;;;8.93;;
28481;SDS011;15703;49.588;6.260;2023-03-07T15:47:53;10.63;;;8.20;;
28481;SDS011;15703;49.588;6.260;2023-03-07T15:50:20;13.60;;;8.17;;
28481;SDS011;15703;49.588;6.260;2023-03-07T15:52:49;11.93;;;8.57;;
28481;SDS011;15703;49.588;6.260;2023-03-07T15:55:16;11.50;;;8.23;;
28481;SDS011;15703;49.588;6.260;2023-03-07T15:57:50;10.33;;;8.30;;
28481;SDS011;15703;49.588;6.260;2023-03-07T16:00:18;13.47;;;8.73;;
28481;SDS011;15703;49.588;6.260;2023-03-07T16:02:47;11.70;;;8.70;;
28481;SDS011;15703;49.588;6.260;2023-03-07T16:07:35;12.47;;;8.67;;
28481;SDS011;15703;49.588;6.260;2023-03-07T16:10:00;12.10;;;8.40;;
28481;SDS011;15703;49.588;6.260;2023-03-07T16:12:23;11.93;;;8.33;;
28481;SDS011;15703;49.588;6.260;2023-03-07T16:14:46;12.10;;;9.07;;
28481;SDS011;15703;49.588;6.260;2023-03-07T16:17:17;12.47;;;8.93;;
28481;SDS011;15703;49.588;6.260;2023-03-07T16:19:40;10.37;;;9.00;;
28481;SDS011;15703;49.588;6.260;2023-03-07T16:22:02;11.60;;;9.23;;
28481;SDS011;15703;49.588;6.260;2023-03-07T16:24:25;14.33;;;9.43;;
28481;SDS011;15703;49.588;6.260;2023-03-07T16:26:49;11.80;;;8.93;;
28481;SDS011;15703;49.588;6.260;2023-03-07T16:29:19;13.20;;;9.20;;